createdAt,value
2023-05-07T00:00:32.611Z,49.27
2023-05-07T00:02:59.228Z,49.12
2023-05-07T00:05:25.815Z,49.26
2023-05-07T00:07:53.650Z,49.03
2023-05-07T00:10:20.473Z,49.47
2023-05-07T00:12:47.045Z,49.33
2023-05-07T00:15:13.891Z,49.24
2023-05-07T00:17:40.478Z,49.10
2023-05-07T00:20:08.282Z,49.21
2023-05-07T00:22:34.945Z,49.01
2023-05-07T00:25:01.598Z,48.93
2023-05-07T00:27:28.151Z,49.28
2023-05-07T00:29:54.711Z,48.96
2023-05-07T00:32:21.317Z,49.25
2023-05-07T00:34:47.891Z,49.09
2023-05-07T00:37:14.457Z,49.28
2023-05-07T00:39:41.011Z,49.31
2023-05-07T00:42:07.525Z,49.08
2023-05-07T00:44:34.134Z,49.21
2023-05-07T00:47:04.400Z,49.25
2023-05-07T00:49:40.987Z,49.41
2023-05-07T00:52:08.896Z,48.92
2023-05-07T00:54:36.469Z,49.16
2023-05-07T00:57:04.601Z,49.03
2023-05-07T00:59:33.177Z,49.17
2023-05-07T01:02:00.473Z,49.13
2023-05-07T01:04:27.855Z,49.27
2023-05-07T01:06:59.832Z,49.17
2023-05-07T01:09:27.888Z,49.30
2023-05-07T01:11:54.989Z,49.28
2023-05-07T01:14:21.821Z,49.08
2023-05-07T01:16:49.313Z,48.97
2023-05-07T01:19:18.187Z,49.14
2023-05-07T01:21:48.172Z,49.30
2023-05-07T01:24:15.756Z,49.18
2023-05-07T01:26:43.725Z,49.29
2023-05-07T01:29:10.987Z,49.13
2023-05-07T01:31:38.656Z,49.53
2023-05-07T01:34:07.898Z,49.09
2023-05-07T01:36:34.510Z,49.13
2023-05-07T01:39:01.515Z,49.28
2023-05-07T01:41:28.227Z,49.18
2023-05-07T01:43:57.522Z,49.16
2023-05-07T01:46:24.540Z,49.33
2023-05-07T01:48:51.825Z,49.53
2023-05-07T01:51:18.548Z,49.26
2023-05-07T01:53:46.716Z,49.30
2023-05-07T01:56:13.304Z,49.35
2023-05-07T01:58:39.811Z,49.44
2023-05-07T02:01:06.333Z,49.36
2023-05-07T02:03:33.061Z,49.50
2023-05-07T02:05:59.698Z,49.15
2023-05-07T02:08:26.235Z,49.51
2023-05-07T02:10:52.938Z,49.63
2023-05-07T02:13:20.871Z,49.57
2023-05-07T02:15:51.278Z,49.43
2023-05-07T02:18:18.081Z,49.32
2023-05-07T02:20:44.666Z,49.29
2023-05-07T02:23:11.191Z,49.35
2023-05-07T02:25:37.821Z,49.61
2023-05-07T02:28:04.396Z,49.49
2023-05-07T02:30:30.920Z,49.36
2023-05-07T02:32:57.527Z,49.50
2023-05-07T02:35:25.798Z,49.42
2023-05-07T02:37:52.391Z,49.44
2023-05-07T02:40:19.079Z,49.52
2023-05-07T02:42:45.747Z,49.34
2023-05-07T02:45:12.419Z,49.71
2023-05-07T02:47:38.940Z,49.26
2023-05-07T02:50:06.116Z,49.65
2023-05-07T02:52:32.760Z,49.49
2023-05-07T02:54:59.275Z,49.48
2023-05-07T02:57:25.851Z,49.31
2023-05-07T02:59:53.021Z,49.36
2023-05-07T03:02:19.632Z,49.49
2023-05-07T03:04:46.136Z,49.51
2023-05-07T03:07:12.631Z,49.42
2023-05-07T03:09:39.158Z,49.42
2023-05-07T03:12:05.837Z,49.10
2023-05-07T03:14:32.380Z,49.65
2023-05-07T03:16:58.908Z,49.50
2023-05-07T03:19:25.442Z,49.31
2023-05-07T03:21:52.103Z,49.26
2023-05-07T03:24:18.652Z,49.31
2023-05-07T03:26:45.319Z,49.51
2023-05-07T03:29:11.885Z,49.70
2023-05-07T03:31:38.629Z,49.35
2023-05-07T03:34:05.153Z,49.73
2023-05-07T03:36:31.645Z,49.62
2023-05-07T03:38:58.190Z,49.60
2023-05-07T03:41:24.781Z,49.69
2023-05-07T03:43:51.264Z,49.27
2023-05-07T03:46:17.815Z,49.57
2023-05-07T03:48:44.348Z,49.73
2023-05-07T03:51:11.208Z,49.76
2023-05-07T03:53:38.054Z,49.27
2023-05-07T03:56:04.865Z,49.58
2023-05-07T03:58:31.349Z,49.50
2023-05-07T04:00:57.875Z,49.48
2023-05-07T04:03:24.504Z,49.58
2023-05-07T04:05:51.100Z,49.78
2023-05-07T04:08:17.615Z,49.77
2023-05-07T04:10:44.191Z,49.75
2023-05-07T04:13:10.828Z,49.50
2023-05-07T04:15:37.487Z,49.18
2023-05-07T04:18:04.127Z,49.59
2023-05-07T04:20:30.686Z,49.50
2023-05-07T04:22:57.214Z,49.61
2023-05-07T04:25:27.750Z,49.69
2023-05-07T04:27:55.465Z,49.68
2023-05-07T04:30:23.860Z,49.58
2023-05-07T04:32:50.416Z,49.47
2023-05-07T04:35:17.187Z,49.28
2023-05-07T04:37:43.743Z,49.42
2023-05-07T04:40:11.134Z,49.54
2023-05-07T04:42:37.896Z,49.28
2023-05-07T04:45:05.939Z,49.83
2023-05-07T04:47:32.707Z,49.11
2023-05-07T04:49:59.283Z,49.34
2023-05-07T04:52:27.336Z,49.41
2023-05-07T04:54:54.236Z,49.05
2023-05-07T04:57:21.006Z,49.88
2023-05-07T04:59:47.599Z,49.45
2023-05-07T05:02:14.134Z,49.47
2023-05-07T05:04:40.711Z,49.31
2023-05-07T05:07:07.237Z,49.28
2023-05-07T05:09:33.817Z,49.65
2023-05-07T05:12:00.729Z,49.65
2023-05-07T05:14:27.286Z,49.18
2023-05-07T05:16:53.860Z,49.13
2023-05-07T05:19:20.465Z,49.50
2023-05-07T05:21:47.123Z,49.62
2023-05-07T05:24:13.709Z,49.56
2023-05-07T05:26:40.317Z,49.37
2023-05-07T05:29:07.379Z,49.40
2023-05-07T05:31:34.677Z,49.62
2023-05-07T05:34:01.340Z,49.06
2023-05-07T05:36:27.923Z,49.44
2023-05-07T05:38:54.446Z,49.32
2023-05-07T05:41:21.612Z,49.25
2023-05-07T05:43:48.155Z,49.32
2023-05-07T05:46:14.792Z,49.26
2023-05-07T05:48:41.568Z,49.61
2023-05-07T05:51:08.090Z,49.51
2023-05-07T05:53:34.621Z,49.54
2023-05-07T05:56:01.208Z,49.36
2023-05-07T05:58:28.062Z,49.12
2023-05-07T06:00:54.665Z,49.52
2023-05-07T06:03:21.306Z,49.50
2023-05-07T06:05:47.929Z,49.06
2023-05-07T06:08:14.484Z,49.60
2023-05-07T06:10:41.234Z,49.47
2023-05-07T06:13:07.976Z,49.25
2023-05-07T06:15:34.548Z,49.06
2023-05-07T06:18:01.115Z,48.99
2023-05-07T06:20:27.655Z,49.42
2023-05-07T06:22:54.252Z,49.20
2023-05-07T06:25:21.032Z,49.06
2023-05-07T06:27:47.824Z,49.12
2023-05-07T06:30:14.367Z,49.56
2023-05-07T06:32:42.031Z,49.54
2023-05-07T06:35:09.118Z,49.06
2023-05-07T06:37:35.621Z,49.67
2023-05-07T06:40:02.193Z,49.38
2023-05-07T06:42:28.727Z,49.01
2023-05-07T06:44:55.996Z,49.43
2023-05-07T06:47:22.623Z,49.35
2023-05-07T06:49:49.201Z,49.20
2023-05-07T06:52:15.683Z,49.33
2023-05-07T06:54:42.272Z,49.12
2023-05-07T06:57:08.833Z,49.31
2023-05-07T06:59:35.482Z,49.26
2023-05-07T07:02:02.107Z,49.09
2023-05-07T07:04:29.301Z,49.32
2023-05-07T07:06:57.658Z,49.22
2023-05-07T07:09:24.293Z,49.69
2023-05-07T07:11:50.868Z,49.08
2023-05-07T07:14:17.392Z,48.98
2023-05-07T07:16:43.911Z,49.32
2023-05-07T07:19:10.467Z,49.61
2023-05-07T07:21:37.090Z,49.24
2023-05-07T07:24:03.796Z,49.23
2023-05-07T07:26:30.444Z,49.25
2023-05-07T07:28:56.948Z,49.05
2023-05-07T07:31:23.520Z,49.26
2023-05-07T07:33:53.067Z,49.22
2023-05-07T07:36:19.993Z,49.28
2023-05-07T07:38:46.532Z,49.25
2023-05-07T07:41:13.035Z,49.95
2023-05-07T07:43:39.623Z,49.86
2023-05-07T07:46:06.375Z,50.34
2023-05-07T07:48:33.006Z,50.88
2023-05-07T07:50:59.556Z,51.37
2023-05-07T07:53:26.337Z,51.50
2023-05-07T07:55:54.395Z,51.45
2023-05-07T07:58:25.791Z,51.59
2023-05-07T08:00:52.382Z,51.78
2023-05-07T08:03:18.986Z,51.50
2023-05-07T08:05:45.835Z,52.16
2023-05-07T08:08:12.373Z,52.70
2023-05-07T08:10:40.153Z,52.76
2023-05-07T08:13:07.151Z,52.88
2023-05-07T08:15:33.718Z,52.62
2023-05-07T08:18:01.276Z,53.12
2023-05-07T08:20:28.214Z,53.04
2023-05-07T08:22:54.774Z,53.41
2023-05-07T08:25:21.354Z,53.42
2023-05-07T08:27:47.900Z,53.27
2023-05-07T08:30:15.050Z,53.18
2023-05-07T08:32:41.664Z,53.16
2023-05-07T08:35:08.630Z,53.11
2023-05-07T08:37:35.261Z,53.22
2023-05-07T08:40:01.908Z,52.93
2023-05-07T08:42:30.387Z,53.08
2023-05-07T08:44:58.576Z,52.87
2023-05-07T08:47:30.920Z,52.65
2023-05-07T08:49:57.510Z,52.11
2023-05-07T08:52:24.310Z,52.41
2023-05-07T08:54:51.121Z,52.26
2023-05-07T08:57:17.676Z,52.16
2023-05-07T08:59:44.201Z,51.84
2023-05-07T09:02:12.432Z,52.11
2023-05-07T09:04:39.131Z,51.94
2023-05-07T09:07:06.438Z,51.87
2023-05-07T09:09:36.450Z,51.93
2023-05-07T09:12:04.672Z,51.96
2023-05-07T09:14:34.515Z,51.99
2023-05-07T09:17:01.252Z,51.44
2023-05-07T09:19:28.464Z,51.53
2023-05-07T09:22:06.396Z,51.58
2023-05-07T09:24:36.055Z,51.74
2023-05-07T09:27:03.454Z,51.40
2023-05-07T09:29:31.226Z,51.61
2023-05-07T09:31:57.803Z,51.42
2023-05-07T09:34:24.368Z,51.34
2023-05-07T09:36:51.122Z,51.37
2023-05-07T09:39:17.714Z,51.09
2023-05-07T09:41:46.258Z,51.29
2023-05-07T09:44:14.829Z,50.86
2023-05-07T09:46:45.578Z,50.85
2023-05-07T09:49:22.883Z,50.87
2023-05-07T09:51:51.267Z,50.67
2023-05-07T09:54:18.894Z,50.83
2023-05-07T09:56:53.190Z,50.28
2023-05-07T09:59:21.265Z,50.51
2023-05-07T10:01:47.800Z,50.44
2023-05-07T10:04:15.640Z,50.18
2023-05-07T10:06:43.610Z,50.44
2023-05-07T10:09:10.814Z,50.15
2023-05-07T10:11:37.891Z,50.07
2023-05-07T10:14:06.834Z,50.13
2023-05-07T10:16:37.253Z,49.94
2023-05-07T10:19:05.619Z,49.87
2023-05-07T10:21:36.725Z,50.36
2023-05-07T10:24:15.689Z,50.20
2023-05-07T10:26:46.483Z,49.85
2023-05-07T10:29:30.850Z,50.15
2023-05-07T10:32:03.171Z,50.25
2023-05-07T10:34:36.878Z,49.83
2023-05-07T10:37:04.772Z,49.46
2023-05-07T10:39:31.823Z,49.76
2023-05-07T10:42:07.920Z,50.05
2023-05-07T10:44:34.497Z,49.81
2023-05-07T10:47:09.852Z,50.12
2023-05-07T10:49:38.243Z,49.54
2023-05-07T10:52:19.785Z,50.27
2023-05-07T10:54:47.243Z,50.07
2023-05-07T10:57:36.587Z,49.75
2023-05-07T11:00:04.608Z,49.88
2023-05-07T11:03:01.982Z,49.80
2023-05-07T11:05:31.392Z,49.97
2023-05-07T11:08:02.147Z,50.46
2023-05-07T11:10:52.392Z,50.01
2023-05-07T11:13:20.143Z,49.96
2023-05-07T11:15:48.387Z,50.23
2023-05-07T11:18:18.942Z,50.22
2023-05-07T11:20:53.490Z,49.78
2023-05-07T11:23:35.673Z,49.99
2023-05-07T11:26:10.174Z,49.90
2023-05-07T11:28:41.411Z,50.50
2023-05-07T11:31:09.128Z,50.12
2023-05-07T11:33:37.159Z,49.72
2023-05-07T11:36:05.542Z,50.07
2023-05-07T11:38:36.100Z,49.68
2023-05-07T11:41:03.555Z,49.28
2023-05-07T11:43:30.097Z,49.49
2023-05-07T11:46:12.373Z,49.79
2023-05-07T11:48:40.054Z,49.80
2023-05-07T11:51:09.620Z,50.35
2023-05-07T11:53:38.792Z,49.62
2023-05-07T11:56:13.427Z,49.57
2023-05-07T11:58:41.255Z,49.82
2023-05-07T12:01:12.307Z,49.37
2023-05-07T12:03:45.850Z,49.83
2023-05-07T12:06:13.458Z,49.19
2023-05-07T12:08:41.885Z,50.01
2023-05-07T12:11:10.721Z,49.17
2023-05-07T12:13:37.396Z,49.23
2023-05-07T12:16:05.440Z,49.12
2023-05-07T12:18:32.245Z,48.83
2023-05-07T12:21:00.160Z,49.00
2023-05-07T12:23:26.919Z,49.47
2023-05-07T12:25:53.445Z,49.31
2023-05-07T12:28:20.585Z,49.45
2023-05-07T12:30:49.217Z,49.33
2023-05-07T12:33:20.228Z,49.14
2023-05-07T12:35:48.835Z,48.92
2023-05-07T12:38:18.313Z,49.60
2023-05-07T12:40:46.319Z,49.34
2023-05-07T12:43:26.809Z,48.69
2023-05-07T12:45:57.048Z,49.46
2023-05-07T12:48:24.825Z,48.77
2023-05-07T12:50:52.416Z,49.04
2023-05-07T12:53:22.316Z,49.23
2023-05-07T12:55:51.960Z,49.26
2023-05-07T12:58:26.005Z,49.08
2023-05-07T13:00:53.306Z,48.55
2023-05-07T13:03:30.734Z,48.64
2023-05-07T13:05:59.872Z,48.28
2023-05-07T13:08:33.108Z,48.65
2023-05-07T13:11:05.552Z,48.50
2023-05-07T13:13:33.354Z,48.16
2023-05-07T13:16:01.466Z,48.56
2023-05-07T13:18:30.177Z,48.17
2023-05-07T13:20:57.108Z,48.02
2023-05-07T13:23:23.810Z,48.54
2023-05-07T13:25:51.508Z,48.45
2023-05-07T13:28:18.142Z,47.95
2023-05-07T13:30:44.711Z,48.25
2023-05-07T13:33:11.258Z,47.95
2023-05-07T13:35:37.923Z,47.35
2023-05-07T13:38:04.766Z,47.34
2023-05-07T13:40:31.771Z,47.47
2023-05-07T13:43:00.681Z,47.71
2023-05-07T13:45:27.977Z,47.82
2023-05-07T13:47:54.624Z,47.41
2023-05-07T13:50:21.222Z,47.97
2023-05-07T13:52:51.521Z,47.33
2023-05-07T13:55:19.241Z,47.56
2023-05-07T13:57:46.392Z,47.55
2023-05-07T14:00:14.091Z,47.81
2023-05-07T14:02:41.484Z,47.95
2023-05-07T14:05:09.891Z,48.34
2023-05-07T14:07:36.907Z,48.62
2023-05-07T14:10:03.967Z,48.11
2023-05-07T14:12:30.709Z,48.39
2023-05-07T14:14:57.510Z,48.12
2023-05-07T14:17:26.424Z,48.03
2023-05-07T14:19:55.268Z,47.98
2023-05-07T14:22:23.613Z,48.39
2023-05-07T14:25:05.368Z,47.99
2023-05-07T14:27:33.517Z,48.59
2023-05-07T14:30:00.291Z,47.99
2023-05-07T14:32:26.954Z,48.09
2023-05-07T14:34:53.493Z,48.58
2023-05-07T14:37:21.207Z,48.52
2023-05-07T14:39:50.718Z,48.38
2023-05-07T14:42:18.219Z,48.32
2023-05-07T14:44:46.416Z,48.32
2023-05-07T14:47:13.722Z,48.61
2023-05-07T14:49:41.535Z,48.28
2023-05-07T14:52:09.132Z,48.94
2023-05-07T14:54:39.031Z,49.00
2023-05-07T14:57:06.886Z,48.35
2023-05-07T14:59:33.708Z,48.84
2023-05-07T15:02:05.405Z,48.40
2023-05-07T15:04:33.642Z,48.70
2023-05-07T15:07:00.980Z,48.95
2023-05-07T15:09:27.685Z,48.82
2023-05-07T15:11:54.251Z,48.93
2023-05-07T15:14:22.734Z,48.89
2023-05-07T15:16:49.928Z,49.07
2023-05-07T15:19:17.952Z,48.57
2023-05-07T15:21:44.708Z,48.28
2023-05-07T15:24:11.409Z,48.76
2023-05-07T15:26:37.922Z,49.17
2023-05-07T15:29:09.122Z,48.69
2023-05-07T15:31:35.956Z,49.03
2023-05-07T15:34:02.559Z,49.12
2023-05-07T15:36:29.141Z,49.06
2023-05-07T15:38:55.742Z,48.95
2023-05-07T15:41:22.376Z,49.29
2023-05-07T15:43:51.202Z,48.85
2023-05-07T15:46:24.467Z,49.42
2023-05-07T15:48:54.918Z,48.83
2023-05-07T15:51:22.750Z,49.10
2023-05-07T15:53:50.005Z,48.85
2023-05-07T15:56:16.524Z,49.44
2023-05-07T15:58:43.072Z,49.02
2023-05-07T16:01:09.707Z,49.17
2023-05-07T16:03:36.729Z,49.63
2023-05-07T16:06:03.514Z,49.56
2023-05-07T16:08:30.140Z,49.36
2023-05-07T16:10:56.720Z,49.37
2023-05-07T16:13:24.874Z,49.20
2023-05-07T16:15:58.401Z,49.08
2023-05-07T16:18:25.204Z,49.18
2023-05-07T16:20:52.022Z,49.55
2023-05-07T16:23:19.237Z,49.53
2023-05-07T16:25:45.883Z,49.01
2023-05-07T16:28:12.568Z,48.92
2023-05-07T16:30:39.142Z,49.38
2023-05-07T16:33:05.790Z,48.99
2023-05-07T16:35:32.391Z,49.61
2023-05-07T16:37:59.054Z,49.72
2023-05-07T16:40:25.719Z,49.67
2023-05-07T16:42:54.790Z,49.64
2023-05-07T16:45:24.948Z,49.57
2023-05-07T16:47:51.648Z,49.63
2023-05-07T16:50:18.367Z,49.05
2023-05-07T16:52:45.078Z,49.72
2023-05-07T16:55:11.954Z,49.42
2023-05-07T16:57:38.802Z,49.82
2023-05-07T17:00:07.463Z,49.91
2023-05-07T17:02:35.683Z,49.60
2023-05-07T17:05:02.450Z,49.49
2023-05-07T17:07:28.989Z,49.33
2023-05-07T17:09:55.564Z,49.21
2023-05-07T17:12:22.752Z,49.79
2023-05-07T17:14:49.518Z,49.66
2023-05-07T17:17:16.196Z,49.88
2023-05-07T17:19:42.767Z,49.60
2023-05-07T17:22:09.334Z,49.85
2023-05-07T17:24:36.515Z,49.93
2023-05-07T17:27:03.100Z,50.25
2023-05-07T17:29:30.941Z,50.43
2023-05-07T17:31:57.538Z,50.13
2023-05-07T17:34:24.260Z,50.21
2023-05-07T17:36:50.866Z,50.61
2023-05-07T17:39:17.494Z,50.35
2023-05-07T17:41:44.024Z,50.86
2023-05-07T17:44:10.565Z,50.55
2023-05-07T17:46:37.138Z,50.41
2023-05-07T17:49:03.769Z,50.54
2023-05-07T17:51:36.087Z,50.76
2023-05-07T17:54:09.188Z,50.72
2023-05-07T17:56:37.164Z,50.83
2023-05-07T17:59:03.715Z,50.80
2023-05-07T18:01:30.934Z,51.13
2023-05-07T18:03:57.694Z,50.80
2023-05-07T18:06:24.307Z,51.11
2023-05-07T18:08:50.989Z,50.80
2023-05-07T18:11:17.692Z,51.02
2023-05-07T18:13:44.308Z,50.41
2023-05-07T18:16:10.996Z,50.95
2023-05-07T18:18:37.693Z,50.88
2023-05-07T18:21:04.655Z,50.62
2023-05-07T18:23:31.248Z,51.04
2023-05-07T18:25:57.798Z,50.67
2023-05-07T18:28:24.386Z,50.99
2023-05-07T18:30:50.964Z,50.52
2023-05-07T18:33:17.648Z,51.20
2023-05-07T18:35:44.449Z,50.94
2023-05-07T18:38:11.122Z,51.23
2023-05-07T18:40:37.887Z,51.10
2023-05-07T18:43:07.033Z,51.52
2023-05-07T18:45:34.343Z,50.96
2023-05-07T18:48:01.578Z,51.45
2023-05-07T18:50:28.125Z,50.92
2023-05-07T18:52:54.728Z,51.22
2023-05-07T18:55:22.123Z,50.95
2023-05-07T18:57:49.506Z,50.99
2023-05-07T19:00:16.506Z,51.28
2023-05-07T19:02:43.100Z,51.04
2023-05-07T19:05:09.757Z,51.11
2023-05-07T19:07:36.453Z,51.13
2023-05-07T19:10:06.006Z,51.39
2023-05-07T19:12:32.869Z,51.40
2023-05-07T19:14:59.402Z,51.32
2023-05-07T19:17:25.979Z,51.21
2023-05-07T19:19:52.526Z,51.35
2023-05-07T19:22:19.104Z,51.26
2023-05-07T19:24:45.687Z,51.08
2023-05-07T19:27:12.277Z,51.40
2023-05-07T19:29:39.792Z,51.17
2023-05-07T19:32:06.451Z,51.43
2023-05-07T19:34:33.111Z,51.62
2023-05-07T19:36:59.655Z,51.08
2023-05-07T19:39:26.234Z,50.91
2023-05-07T19:41:52.768Z,50.93
2023-05-07T19:44:19.333Z,50.79
2023-05-07T19:46:47.738Z,51.21
2023-05-07T19:49:14.469Z,50.93
2023-05-07T19:51:41.294Z,51.20
2023-05-07T19:54:07.826Z,50.75
2023-05-07T19:56:34.414Z,50.72
2023-05-07T19:59:01.054Z,50.94
2023-05-07T20:01:29.237Z,50.94
2023-05-07T20:03:56.280Z,50.80
2023-05-07T20:06:23.496Z,50.87
2023-05-07T20:08:50.768Z,51.21
2023-05-07T20:11:17.580Z,50.99
2023-05-07T20:13:44.109Z,50.81
2023-05-07T20:16:11.009Z,50.98
2023-05-07T20:18:37.654Z,50.97
2023-05-07T20:21:04.987Z,50.92
2023-05-07T20:23:31.624Z,50.78
2023-05-07T20:25:59.097Z,51.10
2023-05-07T20:28:25.780Z,50.89
2023-05-07T20:30:52.454Z,50.94
2023-05-07T20:33:19.083Z,51.17
2023-05-07T20:35:45.642Z,51.15
2023-05-07T20:38:12.246Z,51.26
2023-05-07T20:40:38.943Z,51.43
2023-05-07T20:43:06.497Z,51.44
2023-05-07T20:45:33.309Z,50.65
2023-05-07T20:48:01.138Z,51.60
2023-05-07T20:50:27.851Z,51.73
2023-05-07T20:52:54.420Z,51.06
2023-05-07T20:55:21.091Z,51.49
2023-05-07T20:57:47.707Z,51.14
2023-05-07T21:00:15.839Z,51.34
2023-05-07T21:02:43.625Z,51.22
2023-05-07T21:05:10.174Z,51.52
2023-05-07T21:07:36.766Z,51.31
2023-05-07T21:10:03.517Z,51.24
2023-05-07T21:12:30.052Z,51.26
2023-05-07T21:14:56.876Z,51.21
2023-05-07T21:17:23.405Z,51.20
2023-05-07T21:19:50.096Z,51.19
2023-05-07T21:22:16.589Z,51.53
2023-05-07T21:24:43.200Z,51.37
2023-05-07T21:27:09.816Z,51.14
2023-05-07T21:29:36.438Z,51.27
2023-05-07T21:32:03.785Z,51.35
2023-05-07T21:34:30.382Z,51.22
2023-05-07T21:36:57.062Z,51.33
2023-05-07T21:39:24.752Z,51.18
2023-05-07T21:41:51.294Z,51.28
2023-05-07T21:44:17.880Z,51.44
2023-05-07T21:46:44.601Z,51.31
2023-05-07T21:49:11.923Z,51.37
2023-05-07T21:51:38.504Z,51.54
2023-05-07T21:54:05.113Z,51.19
2023-05-07T21:56:31.610Z,51.62
2023-05-07T21:58:58.192Z,51.37
2023-05-07T22:01:24.911Z,51.63
2023-05-07T22:03:51.996Z,51.32
2023-05-07T22:06:21.708Z,51.39
2023-05-07T22:08:51.467Z,51.65
2023-05-07T22:11:18.197Z,51.52
2023-05-07T22:13:44.776Z,51.68
2023-05-07T22:16:11.337Z,51.41
2023-05-07T22:18:37.893Z,51.54
2023-05-07T22:21:04.616Z,51.68
2023-05-07T22:23:31.217Z,51.71
2023-05-07T22:25:58.285Z,51.43
2023-05-07T22:28:24.881Z,51.63
2023-05-07T22:30:51.377Z,51.45
2023-05-07T22:33:18.017Z,51.39
2023-05-07T22:35:44.556Z,51.32
2023-05-07T22:38:11.175Z,51.43
2023-05-07T22:40:37.690Z,51.50
2023-05-07T22:43:04.231Z,51.63
2023-05-07T22:45:30.827Z,51.80
2023-05-07T22:47:57.440Z,51.36
2023-05-07T22:50:24.142Z,51.64
2023-05-07T22:52:50.749Z,51.42
2023-05-07T22:55:17.519Z,51.46
2023-05-07T22:57:44.117Z,51.51
2023-05-07T23:00:11.974Z,51.72
2023-05-07T23:02:38.937Z,51.58
2023-05-07T23:05:05.723Z,51.80
2023-05-07T23:07:32.258Z,51.72
2023-05-07T23:09:59.106Z,51.59
2023-05-07T23:12:25.741Z,51.69
2023-05-07T23:14:52.303Z,51.76
2023-05-07T23:17:18.822Z,51.81
2023-05-07T23:19:45.372Z,51.54
2023-05-07T23:22:12.312Z,51.77
2023-05-07T23:24:39.246Z,51.65
2023-05-07T23:27:06.655Z,51.72
2023-05-07T23:29:33.462Z,51.81
2023-05-07T23:32:00.714Z,51.61
2023-05-07T23:34:27.489Z,52.00
2023-05-07T23:36:54.240Z,51.83
2023-05-07T23:39:20.948Z,51.81
2023-05-07T23:41:47.527Z,51.81
2023-05-07T23:44:16.494Z,51.63
2023-05-07T23:46:44.434Z,52.02
2023-05-07T23:49:11.292Z,51.76
2023-05-07T23:51:37.994Z,52.01
2023-05-07T23:54:05.002Z,51.84
2023-05-07T23:56:31.625Z,51.72
2023-05-07T23:58:58.212Z,51.76
